createdAt,value
2023-04-18T00:00:26.934Z,6.22
2023-04-18T00:09:33.267Z,6.90
2023-04-18T00:11:59.806Z,6.90
2023-04-18T00:14:26.130Z,5.97
2023-04-18T00:16:54.090Z,6.60
2023-04-18T00:19:20.454Z,6.50
2023-04-18T00:21:46.937Z,6.80
2023-04-18T00:24:13.668Z,6.15
2023-04-18T00:26:40.239Z,6.55
2023-04-18T00:29:06.666Z,6.47
2023-04-18T00:31:33.039Z,6.20
2023-04-18T00:33:59.396Z,6.78
2023-04-18T00:36:26.929Z,6.28
2023-04-18T00:38:53.368Z,6.07
2023-04-18T00:41:21.667Z,6.45
2023-04-18T00:43:48.034Z,6.40
2023-04-18T00:46:14.486Z,6.40
2023-04-18T00:48:41.269Z,7.13
2023-04-18T00:51:09.760Z,7.00
2023-04-18T00:53:36.667Z,6.07
2023-04-18T00:56:04.326Z,6.30
2023-04-18T00:58:32.286Z,6.40
2023-04-18T01:00:58.589Z,7.05
2023-04-18T01:03:28.225Z,6.50
2023-04-18T01:05:55.376Z,6.45
2023-04-18T01:08:22.067Z,6.68
2023-04-18T01:10:49.456Z,6.50
2023-04-18T01:13:17.854Z,7.47
2023-04-18T01:15:48.666Z,7.10
2023-04-18T01:18:19.031Z,7.10
2023-04-18T01:20:49.699Z,6.88
2023-04-18T01:23:17.564Z,6.63
2023-04-18T01:25:45.310Z,7.22
2023-04-18T01:28:13.554Z,6.50
2023-04-18T01:30:40.745Z,6.78
2023-04-18T01:33:07.187Z,10.35
2023-04-18T01:35:34.257Z,10.55
2023-04-18T01:38:01.086Z,17.30
2023-04-18T01:40:27.545Z,10.70
2023-04-18T01:42:53.957Z,12.38
2023-04-18T01:45:20.406Z,20.73
2023-04-18T01:47:47.187Z,9.70
2023-04-18T01:50:14.277Z,7.65
2023-04-18T01:52:41.294Z,8.05
2023-04-18T01:55:08.224Z,6.65
2023-04-18T01:57:36.657Z,7.50
2023-04-18T02:00:07.611Z,7.55
2023-04-18T02:02:34.187Z,6.57
2023-04-18T02:05:01.070Z,7.35
2023-04-18T02:07:27.640Z,6.65
2023-04-18T02:09:54.046Z,7.10
2023-04-18T02:12:20.976Z,6.72
2023-04-18T02:14:51.608Z,8.25
2023-04-18T02:17:18.433Z,7.63
2023-04-18T02:19:44.820Z,8.68
2023-04-18T02:22:11.141Z,7.95
2023-04-18T02:24:37.505Z,7.68
2023-04-18T02:27:03.839Z,7.30
2023-04-18T02:29:30.581Z,7.43
2023-04-18T02:31:58.211Z,6.80
2023-04-18T02:34:24.506Z,7.70
2023-04-18T02:36:50.885Z,7.68
2023-04-18T02:39:17.244Z,6.45
2023-04-18T02:41:43.622Z,7.60
2023-04-18T02:44:10.197Z,7.50
2023-04-18T02:46:36.538Z,7.50
2023-04-18T02:49:03.372Z,7.10
2023-04-18T02:51:29.711Z,7.00
2023-04-18T02:53:56.130Z,7.55
2023-04-18T02:56:22.497Z,7.30
2023-04-18T02:58:49.113Z,7.78
2023-04-18T03:01:17.883Z,7.28
2023-04-18T03:03:44.356Z,7.68
2023-04-18T03:06:10.713Z,7.40
2023-04-18T03:08:37.057Z,7.80
2023-04-18T03:11:03.434Z,7.75
2023-04-18T03:13:29.734Z,7.15
2023-04-18T03:15:56.272Z,8.35
2023-04-18T03:18:23.938Z,7.07
2023-04-18T03:20:50.398Z,7.88
2023-04-18T03:23:16.730Z,7.53
2023-04-18T03:25:43.211Z,7.75
2023-04-18T03:28:09.603Z,7.88
2023-04-18T03:30:35.978Z,7.38
2023-04-18T03:33:02.706Z,7.47
2023-04-18T03:35:29.309Z,7.70
2023-04-18T03:37:55.716Z,7.72
2023-04-18T03:40:22.332Z,7.72
2023-04-18T03:42:48.694Z,7.55
2023-04-18T03:45:15.620Z,7.78
2023-04-18T03:47:41.915Z,9.10
2023-04-18T03:50:08.676Z,8.38
2023-04-18T03:52:35.067Z,7.60
2023-04-18T03:55:01.557Z,7.70
2023-04-18T03:57:27.931Z,8.73
2023-04-18T03:59:54.288Z,7.90
2023-04-18T04:02:20.918Z,8.32
2023-04-18T04:04:47.452Z,9.00
2023-04-18T04:07:13.886Z,9.27
2023-04-18T04:09:40.282Z,8.88
2023-04-18T04:12:06.732Z,9.30
2023-04-18T04:14:33.399Z,9.20
2023-04-18T04:16:59.981Z,7.70
2023-04-18T04:19:26.322Z,9.73
2023-04-18T04:21:52.708Z,8.93
2023-04-18T04:24:20.397Z,9.05
2023-04-18T04:26:48.690Z,8.90
2023-04-18T04:29:16.239Z,9.02
2023-04-18T04:31:42.732Z,8.85
2023-04-18T04:34:09.112Z,9.32
2023-04-18T04:36:35.601Z,9.77
2023-04-18T04:39:04.123Z,10.00
2023-04-18T04:41:31.515Z,9.63
2023-04-18T04:43:59.464Z,9.38
2023-04-18T04:46:29.302Z,10.10
2023-04-18T04:48:55.784Z,10.25
2023-04-18T04:51:22.175Z,9.25
2023-04-18T04:53:48.579Z,10.75
2023-04-18T04:56:15.017Z,10.77
2023-04-18T04:58:41.356Z,11.70
2023-04-18T05:01:08.950Z,11.55
2023-04-18T05:03:36.478Z,10.68
2023-04-18T05:06:03.033Z,10.85
2023-04-18T05:08:29.348Z,11.15
2023-04-18T05:10:55.695Z,11.13
2023-04-18T05:13:22.106Z,11.48
2023-04-18T05:15:48.511Z,11.68
2023-04-18T05:18:14.950Z,11.23
2023-04-18T05:20:41.269Z,12.52
2023-04-18T05:23:07.605Z,10.50
2023-04-18T05:25:33.993Z,10.65
2023-04-18T05:28:01.102Z,11.40
2023-04-18T05:30:27.523Z,10.82
2023-04-18T05:32:53.852Z,11.05
2023-04-18T05:35:20.347Z,10.60
2023-04-18T05:37:46.716Z,9.85
2023-04-18T05:40:13.907Z,11.00
2023-04-18T05:42:40.328Z,9.90
2023-04-18T05:45:07.340Z,10.05
2023-04-18T05:47:33.795Z,10.50
2023-04-18T05:50:00.296Z,8.98
2023-04-18T05:52:27.211Z,10.57
2023-04-18T05:54:53.533Z,9.25
2023-04-18T05:57:19.848Z,10.15
2023-04-18T05:59:46.165Z,10.40
2023-04-18T06:02:15.474Z,9.70
2023-04-18T06:04:42.985Z,9.73
2023-04-18T06:07:09.959Z,9.80
2023-04-18T06:09:36.483Z,9.68
2023-04-18T06:12:02.945Z,8.80
2023-04-18T06:14:29.416Z,10.13
2023-04-18T06:16:55.829Z,9.65
2023-04-18T06:19:22.192Z,9.13
2023-04-18T06:21:49.053Z,9.32
2023-04-18T06:24:15.857Z,9.73
2023-04-18T06:26:42.548Z,9.50
2023-04-18T06:29:08.845Z,8.95
2023-04-18T06:31:35.368Z,8.38
2023-04-18T06:34:01.751Z,9.18
2023-04-18T06:36:28.222Z,9.10
2023-04-18T06:38:54.705Z,8.60
2023-04-18T06:41:21.025Z,8.55
2023-04-18T06:44:02.073Z,8.68
2023-04-18T06:46:29.969Z,8.25
2023-04-18T06:48:56.516Z,8.27
2023-04-18T06:51:22.883Z,8.07
2023-04-18T06:53:52.551Z,9.07
2023-04-18T06:56:20.431Z,8.50
2023-04-18T06:58:47.474Z,8.95
2023-04-18T07:01:13.883Z,7.80
2023-04-18T07:06:31.199Z,7.70
2023-04-18T07:09:00.794Z,7.75
2023-04-18T07:11:28.210Z,8.10
2023-04-18T07:13:54.557Z,8.48
2023-04-18T07:16:21.185Z,7.88
2023-04-18T07:18:47.705Z,8.18
2023-04-18T07:21:14.083Z,8.15
2023-04-18T07:23:40.514Z,7.72
2023-04-18T07:26:07.069Z,8.00
2023-04-18T07:28:33.380Z,7.85
2023-04-18T07:31:01.280Z,8.68
2023-04-18T07:33:31.509Z,8.52
2023-04-18T07:35:57.989Z,7.68
2023-04-18T07:38:24.398Z,8.07
2023-04-18T07:41:01.258Z,8.75
2023-04-18T07:43:27.845Z,8.10
2023-04-18T07:45:54.309Z,7.15
2023-04-18T07:48:25.225Z,7.65
2023-04-18T07:50:51.554Z,7.90
2023-04-18T07:53:17.876Z,7.53
2023-04-18T07:55:45.229Z,8.23
2023-04-18T07:58:11.606Z,8.27
2023-04-18T08:00:42.679Z,8.55
2023-04-18T08:03:13.431Z,7.82
2023-04-18T08:05:41.228Z,7.68
2023-04-18T08:08:09.145Z,8.13
2023-04-18T08:10:36.192Z,8.20
2023-04-18T08:13:03.741Z,7.68
2023-04-18T08:15:32.274Z,7.07
2023-04-18T08:17:59.850Z,7.47
2023-04-18T08:20:26.519Z,7.43
2023-04-18T08:23:06.158Z,7.05
2023-04-18T08:25:36.105Z,6.90
2023-04-18T08:28:02.443Z,6.93
2023-04-18T08:30:28.861Z,6.88
2023-04-18T08:32:55.190Z,6.97
2023-04-18T08:35:21.587Z,7.00
2023-04-18T08:37:47.995Z,7.13
2023-04-18T08:40:14.439Z,7.10
2023-04-18T08:42:45.007Z,6.72
2023-04-18T08:45:14.080Z,7.15
2023-04-18T08:47:43.513Z,7.00
2023-04-18T08:50:10.565Z,6.88
2023-04-18T08:52:39.479Z,7.38
2023-04-18T08:55:06.468Z,7.05
2023-04-18T08:57:33.428Z,6.97
2023-04-18T09:00:01.512Z,7.20
2023-04-18T09:02:42.287Z,6.78
2023-04-18T09:05:13.705Z,7.05
2023-04-18T09:07:40.953Z,6.35
2023-04-18T09:10:07.826Z,5.78
2023-04-18T09:12:42.405Z,6.57
2023-04-18T09:15:10.080Z,6.53
2023-04-18T09:17:46.766Z,7.65
2023-04-18T09:20:15.541Z,6.90
2023-04-18T09:22:51.228Z,7.10
2023-04-18T09:25:38.415Z,6.78
2023-04-18T09:28:29.327Z,6.97
2023-04-18T09:30:57.506Z,7.43
2023-04-18T09:33:34.542Z,7.53
2023-04-18T09:36:17.885Z,6.43
2023-04-18T09:38:44.588Z,6.85
2023-04-18T09:41:12.754Z,7.00
2023-04-18T09:43:39.290Z,7.20
2023-04-18T09:46:07.530Z,7.15
2023-04-18T09:48:33.919Z,6.43
2023-04-18T09:51:06.029Z,6.93
2023-04-18T09:53:34.797Z,6.85
2023-04-18T09:56:03.032Z,6.72
2023-04-18T09:58:32.982Z,6.47
2023-04-18T10:00:59.357Z,6.40
2023-04-18T10:03:32.716Z,5.97
2023-04-18T10:05:59.232Z,6.72
2023-04-18T10:08:27.148Z,6.38
2023-04-18T10:10:55.809Z,5.95
2023-04-18T10:13:23.803Z,5.70
2023-04-18T10:15:52.328Z,5.65
2023-04-18T10:18:22.729Z,5.20
2023-04-18T10:20:49.160Z,5.68
2023-04-18T10:23:35.470Z,5.72
2023-04-18T10:26:03.547Z,6.00
2023-04-18T10:28:58.684Z,5.88
2023-04-18T10:31:27.330Z,6.13
2023-04-18T10:36:30.131Z,5.43
2023-04-18T10:39:02.758Z,5.95
2023-04-18T10:41:33.717Z,5.53
2023-04-18T10:44:08.456Z,6.20
2023-04-18T10:46:40.279Z,5.47
2023-04-18T10:49:15.180Z,5.80
2023-04-18T10:51:44.348Z,5.80
2023-04-18T10:54:25.578Z,5.28
2023-04-18T10:56:56.532Z,5.75
2023-04-18T10:59:24.988Z,5.07
2023-04-18T11:01:56.895Z,4.88
2023-04-18T11:04:24.283Z,4.88
2023-04-18T11:06:53.115Z,5.13
2023-04-18T11:09:19.648Z,4.90
2023-04-18T11:11:46.201Z,4.72
2023-04-18T11:14:12.901Z,5.22
2023-04-18T11:16:40.031Z,4.75
2023-04-18T11:19:21.298Z,5.30
2023-04-18T11:21:47.730Z,4.63
2023-04-18T11:24:21.898Z,4.57
2023-04-18T11:26:48.285Z,4.43
2023-04-18T11:29:17.840Z,4.50
2023-04-18T11:31:51.343Z,4.78
2023-04-18T11:34:17.746Z,4.90
2023-04-18T11:36:44.205Z,4.47
2023-04-18T11:39:10.530Z,5.18
2023-04-18T11:41:36.898Z,4.47
2023-04-18T11:44:05.993Z,4.57
2023-04-18T11:46:39.080Z,4.20
2023-04-18T11:49:05.444Z,3.90
2023-04-18T11:51:36.098Z,4.45
2023-04-18T11:54:02.581Z,4.45
2023-04-18T11:56:29.051Z,4.40
2023-04-18T11:58:56.134Z,4.28
2023-04-18T12:01:25.033Z,3.90
2023-04-18T12:04:05.353Z,3.90
2023-04-18T12:06:48.158Z,3.83
2023-04-18T12:09:15.668Z,4.45
2023-04-18T12:11:42.386Z,3.83
2023-04-18T12:14:21.779Z,3.78
2023-04-18T12:16:51.604Z,4.20
2023-04-18T12:19:20.392Z,3.45
2023-04-18T12:22:16.626Z,3.95
2023-04-18T12:27:09.718Z,3.38
2023-04-18T12:29:36.047Z,3.80
2023-04-18T12:32:02.558Z,4.05
2023-04-18T12:34:29.005Z,3.58
2023-04-18T12:36:55.620Z,3.63
2023-04-18T12:39:21.997Z,4.40
2023-04-18T12:41:49.746Z,3.70
2023-04-18T12:44:16.746Z,3.50
2023-04-18T12:46:43.176Z,3.47
2023-04-18T12:49:09.574Z,3.55
2023-04-18T12:51:35.961Z,3.38
2023-04-18T12:54:02.310Z,3.40
2023-04-18T12:56:28.628Z,3.40
2023-04-18T12:58:54.954Z,3.10
2023-04-18T13:01:21.904Z,2.85
2023-04-18T13:03:53.680Z,3.10
2023-04-18T13:06:30.647Z,3.08
2023-04-18T13:08:57.037Z,2.85
2023-04-18T13:11:28.263Z,2.75
2023-04-18T13:13:54.807Z,3.40
2023-04-18T13:16:21.398Z,3.10
2023-04-18T13:18:47.773Z,3.00
2023-04-18T13:21:14.076Z,3.10
2023-04-18T13:23:41.055Z,3.08
2023-04-18T13:26:08.560Z,3.22
2023-04-18T13:28:34.888Z,3.50
2023-04-18T13:31:01.195Z,3.00
2023-04-18T13:33:27.519Z,3.08
2023-04-18T13:35:53.892Z,2.85
2023-04-18T13:38:22.995Z,3.20
2023-04-18T13:40:53.668Z,2.85
2023-04-18T13:43:24.480Z,3.47
2023-04-18T13:45:51.018Z,3.13
2023-04-18T13:48:17.493Z,3.10
2023-04-18T13:50:43.880Z,3.08
2023-04-18T13:53:10.316Z,3.55
2023-04-18T13:55:36.757Z,2.90
2023-04-18T13:58:03.115Z,3.03
2023-04-18T14:00:30.198Z,2.97
2023-04-18T14:02:57.523Z,2.95
2023-04-18T14:05:24.012Z,3.13
2023-04-18T14:07:50.471Z,2.97
2023-04-18T14:10:16.971Z,3.28
2023-04-18T14:12:43.339Z,3.45
2023-04-18T14:15:10.190Z,3.40
2023-04-18T14:17:36.643Z,3.28
2023-04-18T14:20:03.325Z,3.13
2023-04-18T14:22:29.728Z,3.63
2023-04-18T14:24:56.243Z,3.25
2023-04-18T14:27:22.906Z,3.30
2023-04-18T14:29:49.321Z,3.60
2023-04-18T14:32:15.821Z,3.20
2023-04-18T14:34:42.691Z,3.65
2023-04-18T14:37:09.510Z,3.85
2023-04-18T14:39:35.940Z,3.92
2023-04-18T14:42:02.387Z,3.50
2023-04-18T14:44:29.528Z,3.40
2023-04-18T14:46:56.006Z,3.53
2023-04-18T14:49:22.402Z,3.50
2023-04-18T14:51:48.729Z,3.40
2023-04-18T14:54:15.217Z,3.22
2023-04-18T14:56:41.557Z,3.30
2023-04-18T14:59:07.878Z,3.45
2023-04-18T15:01:34.350Z,3.38
2023-04-18T15:04:00.852Z,3.50
2023-04-18T15:06:28.281Z,3.50
2023-04-18T15:08:54.676Z,3.80
2023-04-18T15:11:21.305Z,4.20
2023-04-18T15:13:47.684Z,4.50
2023-04-18T15:16:14.111Z,4.25
2023-04-18T15:18:40.441Z,4.88
2023-04-18T15:21:06.882Z,4.57
2023-04-18T15:23:34.041Z,4.80
2023-04-18T15:26:00.510Z,5.30
2023-04-18T15:28:26.845Z,5.32
2023-04-18T15:30:53.199Z,5.13
2023-04-18T15:33:20.396Z,5.03
2023-04-18T15:35:49.589Z,5.13
2023-04-18T15:38:16.017Z,4.93
2023-04-18T15:40:43.369Z,5.60
2023-04-18T15:43:09.711Z,5.70
2023-04-18T15:45:36.032Z,5.97
2023-04-18T15:48:02.417Z,5.47
2023-04-18T15:50:29.877Z,5.22
2023-04-18T15:52:57.247Z,5.30
2023-04-18T15:55:23.641Z,4.80
2023-04-18T15:57:50.149Z,4.80
2023-04-18T16:00:17.248Z,4.47
2023-04-18T16:02:44.979Z,5.38
2023-04-18T16:05:15.146Z,4.88
2023-04-18T16:07:42.417Z,5.15
2023-04-18T16:10:10.178Z,5.43
2023-04-18T16:12:37.671Z,4.82
2023-04-18T16:15:08.038Z,5.63
2023-04-18T16:17:35.364Z,5.80
2023-04-18T16:20:01.788Z,5.28
2023-04-18T16:22:28.178Z,5.60
2023-04-18T16:24:54.680Z,6.05
2023-04-18T16:27:21.224Z,5.80
2023-04-18T16:29:47.696Z,6.10
2023-04-18T16:32:14.077Z,6.35
2023-04-18T16:34:40.475Z,5.55
2023-04-18T16:37:06.774Z,5.53
2023-04-18T16:39:33.393Z,6.15
2023-04-18T16:41:59.757Z,6.90
2023-04-18T16:44:26.299Z,6.53
2023-04-18T16:46:52.741Z,5.85
2023-04-18T16:49:20.372Z,6.00
2023-04-18T16:51:46.666Z,6.53
2023-04-18T16:54:14.359Z,6.25
2023-04-18T16:56:41.332Z,6.15
2023-04-18T16:59:09.283Z,6.07
2023-04-18T17:01:36.065Z,6.45
2023-04-18T17:04:02.528Z,5.88
2023-04-18T17:06:30.896Z,5.72
2023-04-18T17:08:58.791Z,5.78
2023-04-18T17:11:25.261Z,6.30
2023-04-18T17:13:51.758Z,5.57
2023-04-18T17:16:18.237Z,6.07
2023-04-18T17:18:44.616Z,5.82
2023-04-18T17:21:12.478Z,6.03
2023-04-18T17:23:41.559Z,5.70
2023-04-18T17:26:09.107Z,6.03
2023-04-18T17:28:36.186Z,5.88
2023-04-18T17:31:02.738Z,5.72
2023-04-18T17:33:29.076Z,5.60
2023-04-18T17:35:55.387Z,5.50
2023-04-18T17:38:21.802Z,6.13
2023-04-18T17:40:48.271Z,5.40
2023-04-18T17:43:14.583Z,5.45
2023-04-18T17:45:41.402Z,4.72
2023-04-18T17:48:07.853Z,5.15
2023-04-18T17:50:36.767Z,5.22
2023-04-18T17:53:03.641Z,4.90
2023-04-18T17:55:30.117Z,4.38
2023-04-18T17:57:57.352Z,4.75
2023-04-18T18:00:23.832Z,5.00
2023-04-18T18:02:50.373Z,4.88
2023-04-18T18:05:16.978Z,5.25
2023-04-18T18:07:47.235Z,4.95
2023-04-18T18:10:23.118Z,4.88
2023-04-18T18:12:49.836Z,5.00
2023-04-18T18:15:16.220Z,4.57
2023-04-18T18:17:42.747Z,4.88
2023-04-18T18:20:12.429Z,4.65
2023-04-18T18:22:38.789Z,5.47
2023-04-18T18:25:05.493Z,4.97
2023-04-18T18:27:31.931Z,4.65
2023-04-18T18:29:58.276Z,5.15
2023-04-18T18:32:24.669Z,4.53
2023-04-18T18:34:51.082Z,5.55
2023-04-18T18:37:17.426Z,4.72
2023-04-18T18:39:43.779Z,5.63
2023-04-18T18:42:10.137Z,5.78
2023-04-18T18:44:36.593Z,5.65
2023-04-18T18:47:02.921Z,5.70
2023-04-18T18:49:29.257Z,5.63
2023-04-18T18:51:56.784Z,6.05
2023-04-18T18:54:23.445Z,5.82
2023-04-18T18:56:49.920Z,5.45
2023-04-18T18:59:16.497Z,6.13
2023-04-18T19:01:43.021Z,5.55
2023-04-18T19:04:09.653Z,7.07
2023-04-18T19:06:36.257Z,5.95
2023-04-18T19:09:02.736Z,5.72
2023-04-18T19:11:29.646Z,6.40
2023-04-18T19:13:55.983Z,6.38
2023-04-18T19:16:22.404Z,5.50
2023-04-18T19:18:50.392Z,6.20
2023-04-18T19:21:17.353Z,5.90
2023-04-18T19:23:43.843Z,6.05
2023-04-18T19:26:10.189Z,5.18
2023-04-18T19:28:36.540Z,5.80
2023-04-18T19:31:03.024Z,6.00
2023-04-18T19:33:30.372Z,5.57
2023-04-18T19:35:56.901Z,5.72
2023-04-18T19:38:23.273Z,6.55
2023-04-18T19:40:52.181Z,5.72
2023-04-18T19:43:18.520Z,5.97
2023-04-18T19:45:45.079Z,5.93
2023-04-18T19:48:11.869Z,5.80
2023-04-18T19:50:42.122Z,5.90
2023-04-18T19:53:08.882Z,5.90
2023-04-18T19:55:35.365Z,6.05
2023-04-18T19:58:01.885Z,6.10
2023-04-18T20:00:28.454Z,6.20
2023-04-18T20:02:55.045Z,6.57
2023-04-18T20:05:21.608Z,6.40
2023-04-18T20:07:48.256Z,6.75
2023-04-18T20:10:14.669Z,6.70
2023-04-18T20:12:41.080Z,6.30
2023-04-18T20:15:08.200Z,6.57
2023-04-18T20:17:34.740Z,6.20
2023-04-18T20:20:01.407Z,6.32
2023-04-18T20:22:27.833Z,6.47
2023-04-18T20:24:57.039Z,6.60
2023-04-18T20:27:23.513Z,6.15
2023-04-18T20:29:50.043Z,6.22
2023-04-18T20:32:16.518Z,6.22
2023-04-18T20:34:43.279Z,6.88
2023-04-18T20:37:09.978Z,6.30
2023-04-18T20:39:37.904Z,6.60
2023-04-18T20:42:04.685Z,5.93
2023-04-18T20:44:33.320Z,5.70
2023-04-18T20:46:59.702Z,6.35
2023-04-18T20:49:26.148Z,5.82
2023-04-18T20:51:52.595Z,6.13
2023-04-18T20:54:18.958Z,6.57
2023-04-18T20:56:45.376Z,6.05
2023-04-18T20:59:11.728Z,5.05
2023-04-18T21:01:38.083Z,6.00
2023-04-18T21:04:05.154Z,5.75
2023-04-18T21:06:32.705Z,5.75
2023-04-18T21:08:59.035Z,6.05
2023-04-18T21:11:25.378Z,5.40
2023-04-18T21:13:51.682Z,5.95
2023-04-18T21:16:18.201Z,6.82
2023-04-18T21:18:44.596Z,6.00
2023-04-18T21:21:11.688Z,6.07
2023-04-18T21:23:44.195Z,6.47
2023-04-18T21:26:12.906Z,6.15
2023-04-18T21:28:59.296Z,5.90
2023-04-18T21:31:26.659Z,6.13
2023-04-18T21:33:57.301Z,5.90
2023-04-18T21:36:26.845Z,5.82
2023-04-18T21:38:54.523Z,5.78
2023-04-18T21:41:21.320Z,6.05
2023-04-18T21:43:47.873Z,6.35
2023-04-18T21:46:14.912Z,5.40
2023-04-18T21:48:42.774Z,6.05
2023-04-18T21:51:10.451Z,5.70
2023-04-18T21:53:38.458Z,5.78
2023-04-18T21:56:05.597Z,5.15
2023-04-18T21:58:32.248Z,5.97
2023-04-18T22:00:58.915Z,5.30
2023-04-18T22:03:26.675Z,5.78
2023-04-18T22:05:53.244Z,5.93
2023-04-18T22:08:20.190Z,5.28
2023-04-18T22:10:49.625Z,5.53
2023-04-18T22:13:16.554Z,5.80
2023-04-18T22:15:42.923Z,5.30
2023-04-18T22:18:09.316Z,5.50
2023-04-18T22:20:38.851Z,5.13
2023-04-18T22:23:06.874Z,5.05
2023-04-18T22:25:33.777Z,5.25
2023-04-18T22:28:01.606Z,5.50
2023-04-18T22:30:28.379Z,4.40
2023-04-18T22:32:54.779Z,4.43
2023-04-18T22:35:21.780Z,4.95
2023-04-18T22:37:48.132Z,4.50
2023-04-18T22:40:15.539Z,4.47
2023-04-18T22:42:42.098Z,4.60
2023-04-18T22:45:08.978Z,5.30
2023-04-18T22:47:35.374Z,5.68
2023-04-18T22:50:01.870Z,4.97
2023-04-18T22:52:29.186Z,4.85
2023-04-18T22:54:55.686Z,5.20
2023-04-18T22:57:22.059Z,5.90
2023-04-18T22:59:48.359Z,5.15
2023-04-18T23:02:14.888Z,4.63
2023-04-18T23:04:42.288Z,4.68
2023-04-18T23:07:09.029Z,4.82
2023-04-18T23:09:35.304Z,5.22
2023-04-18T23:12:02.320Z,4.78
2023-04-18T23:14:29.388Z,4.72
2023-04-18T23:16:55.765Z,5.22
2023-04-18T23:19:22.154Z,4.78
2023-04-18T23:21:49.721Z,4.65
2023-04-18T23:24:16.420Z,5.20
2023-04-18T23:26:42.907Z,4.50
2023-04-18T23:29:09.268Z,4.57
2023-04-18T23:31:35.724Z,4.38
2023-04-18T23:34:02.142Z,4.30
2023-04-18T23:36:28.512Z,4.28
2023-04-18T23:38:54.880Z,4.72
2023-04-18T23:41:21.218Z,4.78
2023-04-18T23:43:47.586Z,4.65
2023-04-18T23:46:14.067Z,4.70
2023-04-18T23:48:40.513Z,4.47
2023-04-18T23:51:06.943Z,4.68
2023-04-18T23:53:33.307Z,5.00
2023-04-18T23:55:59.621Z,4.72
2023-04-18T23:58:26.526Z,5.03
